Time;durP1;ratioP1;P1;durP2;ratioP2;P2;SDS_P1;SDS_P2;PMS_P1;PMS_P2;Temp;Humidity;BMP_temperature;BMP_pressure;BME280_temperature;BME280_humidity;BME280_pressure;Samples;Min_cycle;Max_cycle;Signal;HPM_P1;HPM_P2
2022/08/08 00:00:23;;;;;;;8.10;4.40;;;12.90;63.60;;;;;;4989678;28;20539;-83
2022/08/08 00:03:00;;;;;;;10.83;4.57;;;12.80;63.60;;;;;;4994599;28;20481;-83
2022/08/08 00:05:37;;;;;;;9.80;4.80;;;12.90;65.00;;;;;;5008988;28;20460;-83
2022/08/08 00:08:19;;;;;;;11.00;5.20;;;12.90;65.60;;;;;;5006922;28;20449;-83
2022/08/08 00:10:58;;;;;;;8.53;4.77;;;12.90;65.50;;;;;;5009429;28;20457;-83
2022/08/08 00:13:32;;;;;;;8.63;5.00;;;13.00;66.00;;;;;;4999860;28;20463;-83
2022/08/08 00:16:04;;;;;;;7.33;4.77;;;12.90;65.50;;;;;;4990025;28;20457;-84
2022/08/08 00:18:39;;;;;;;6.93;4.27;;;12.90;65.10;;;;;;4991843;28;20518;-83
2022/08/08 00:21:15;;;;;;;10.53;5.27;;;12.90;66.40;;;;;;4989186;28;20489;-83
2022/08/08 00:23:44;;;;;;;7.20;4.43;;;12.90;66.70;;;;;;5005203;28;20482;-83
2022/08/08 00:26:16;;;;;;;10.40;5.50;;;12.80;68.20;;;;;;5008910;28;20454;-83
2022/08/08 00:28:49;;;;;;;9.23;5.27;;;12.90;67.80;;;;;;4992441;28;20462;-83
2022/08/08 00:31:19;;;;;;;7.33;4.73;;;12.90;67.30;;;;;;4989091;28;20455;-84
2022/08/08 00:35:09;;;;;;;9.37;6.20;;;13.00;67.70;;;;;;5004220;28;20570;-83
2022/08/08 00:36:51;;;;;;;8.90;5.80;;;12.90;68.00;;;;;;5008432;28;20513;-83
2022/08/08 00:39:25;;;;;;;9.93;5.33;;;12.90;68.60;;;;;;4988842;28;20451;-84
2022/08/08 00:42:31;;;;;;;11.77;5.90;;;12.90;68.90;;;;;;4989872;28;20465;-84
2022/08/08 00:45:27;;;;;;;10.03;6.10;;;12.70;68.90;;;;;;4988391;28;20481;-83
2022/08/08 00:48:46;;;;;;;10.80;6.30;;;12.60;69.60;;;;;;4994542;28;20472;-83
2022/08/08 00:52:00;;;;;;;8.50;5.63;;;12.60;70.00;;;;;;4972162;28;20466;-83
2022/08/08 00:55:01;;;;;;;8.70;5.83;;;12.50;71.40;;;;;;4987174;28;20470;-83
2022/08/08 00:58:16;;;;;;;13.93;6.27;;;12.60;71.40;;;;;;4990657;28;20461;-83
2022/08/08 01:00:54;;;;;;;9.30;5.30;;;12.40;71.20;;;;;;5008213;28;20456;-83
2022/08/08 01:03:53;;;;;;;9.87;5.70;;;12.40;72.40;;;;;;5005517;28;20540;-83
2022/08/08 01:06:43;;;;;;;9.90;6.07;;;12.50;74.30;;;;;;4976210;28;20450;-83
2022/08/08 01:09:57;;;;;;;10.10;6.60;;;12.50;73.30;;;;;;5005374;28;20852;-83
2022/08/08 01:12:46;;;;;;;9.00;5.80;;;12.50;72.80;;;;;;5001673;28;20514;-84
2022/08/08 01:15:46;;;;;;;8.87;5.80;;;12.60;72.60;;;;;;4988024;28;20986;-83
2022/08/08 01:19:12;;;;;;;7.90;5.17;;;12.40;72.20;;;;;;4998948;28;20450;-83
2022/08/08 01:22:19;;;;;;;9.03;5.83;;;12.30;73.50;;;;;;5007534;28;20445;-83
2022/08/08 01:25:28;;;;;;;9.20;5.50;;;12.30;73.60;;;;;;4988793;28;20474;-83
2022/08/08 01:28:21;;;;;;;8.40;5.90;;;12.40;74.80;;;;;;4973759;28;21046;-83
2022/08/08 01:31:13;;;;;;;10.10;7.50;;;12.20;75.20;;;;;;5008375;28;20533;-83
2022/08/08 01:34:22;;;;;;;10.73;8.60;;;12.30;76.20;;;;;;4993597;28;20497;-83
2022/08/08 01:37:31;;;;;;;11.60;9.57;;;12.20;77.40;;;;;;4953479;28;20457;-83
2022/08/08 01:40:14;;;;;;;11.17;10.07;;;12.10;78.90;;;;;;4988004;28;20543;-83
2022/08/08 01:42:49;;;;;;;9.43;8.17;;;12.20;78.90;;;;;;4989302;28;20491;-83
2022/08/08 01:45:57;;;;;;;11.07;9.97;;;12.20;78.90;;;;;;4989228;28;20470;-83
2022/08/08 01:48:42;;;;;;;11.13;8.87;;;12.00;79.90;;;;;;4998020;28;20474;-83
2022/08/08 01:51:36;;;;;;;11.07;8.87;;;12.00;79.10;;;;;;5008016;28;20807;-83
2022/08/08 01:54:16;;;;;;;11.10;9.60;;;12.00;80.40;;;;;;4992566;28;20477;-83
2022/08/08 01:56:57;;;;;;;11.90;10.77;;;11.90;82.10;;;;;;4988058;28;20465;-83
2022/08/08 01:59:48;;;;;;;14.13;10.43;;;12.00;81.60;;;;;;5005415;28;20477;-83
2022/08/08 02:02:43;;;;;;;;;;;;;;;;;;;;;
2022/08/08 02:05:27;;;;;;;11.97;10.87;;;11.90;82.30;;;;;;4988060;28;20482;-83
2022/08/08 02:08:06;;;;;;;11.93;10.87;;;11.90;82.90;;;;;;4998949;28;20454;-83
2022/08/08 02:10:52;;;;;;;14.90;13.60;;;11.90;83.10;;;;;;5008349;28;20454;-83
2022/08/08 02:13:25;;;;;;;13.63;12.43;;;11.80;83.40;;;;;;5005010;28;20482;-83
2022/08/08 02:15:58;;;;;;;14.40;13.07;;;11.80;83.90;;;;;;5007367;28;20450;-83
2022/08/08 02:18:36;;;;;;;19.63;17.83;;;11.80;84.70;;;;;;4995061;28;20450;-83
2022/08/08 02:24:04;;;;;;;19.33;17.77;;;11.90;85.70;;;;;;4988973;28;20547;-83
2022/08/08 02:26:44;;;;;;;24.40;22.50;;;11.80;86.30;;;;;;4988324;28;20449;-83
2022/08/08 02:29:57;;;;;;;25.90;23.90;;;11.80;87.00;;;;;;5005400;28;20479;-83
2022/08/08 02:32:49;;;;;;;23.50;21.90;;;11.90;87.40;;;;;;5005144;28;20458;-83
2022/08/08 02:35:46;;;;;;;19.97;17.13;;;11.90;87.50;;;;;;5007277;28;20875;-83
2022/08/08 02:38:43;;;;;;;17.70;16.30;;;11.90;86.70;;;;;;4997520;28;20458;-83
2022/08/08 02:41:30;;;;;;;24.60;23.10;;;11.70;86.40;;;;;;4987566;28;20471;-83
2022/08/08 02:44:25;;;;;;;26.67;25.07;;;11.70;88.30;;;;;;4989457;28;20516;-83
2022/08/08 02:47:18;;;;;;;28.20;26.43;;;11.80;90.20;;;;;;4991158;28;20901;-83
2022/08/08 02:50:12;;;;;;;52.13;49.37;;;11.70;90.40;;;;;;5011559;28;20458;-83
2022/08/08 02:52:55;;;;;;;53.20;50.73;;;11.70;90.40;;;;;;4980513;28;20475;-83
2022/08/08 02:55:42;;;;;;;79.63;76.33;;;11.80;91.20;;;;;;4991404;28;20442;-83
2022/08/08 02:59:07;;;;;;;112.43;107.97;;;11.80;91.10;;;;;;5005166;28;20450;-83
2022/08/08 03:02:12;;;;;;;80.67;77.23;;;11.70;91.30;;;;;;5011294;28;20449;-83
2022/08/08 03:05:14;;;;;;;49.53;46.83;;;11.70;91.70;;;;;;4986914;28;20483;-83
2022/08/08 03:08:14;;;;;;;75.13;71.60;;;11.70;91.70;;;;;;4995395;28;20796;-83
2022/08/08 03:11:24;;;;;;;73.67;70.33;;;11.70;91.70;;;;;;5011091;28;20454;-83
2022/08/08 03:14:13;;;;;;;85.50;81.97;;;11.50;91.60;;;;;;5009287;28;20473;-83
2022/08/08 03:16:48;;;;;;;97.07;93.03;;;11.60;92.40;;;;;;5010154;28;20740;-83
2022/08/08 03:20:00;;;;;;;86.13;82.40;;;11.40;92.60;;;;;;4991495;28;20846;-83
2022/08/08 03:22:27;;;;;;;93.87;89.83;;;11.40;92.60;;;;;;4993722;28;20508;-83
2022/08/08 03:24:55;;;;;;;159.23;153.37;;;11.20;93.10;;;;;;5008375;28;20486;-83
2022/08/08 03:27:27;;;;;;;112.80;108.23;;;11.20;93.40;;;;;;5008703;28;20642;-83
2022/08/08 03:30:00;;;;;;;76.03;72.57;;;11.00;93.20;;;;;;4997640;28;20454;-83
2022/08/08 03:35:11;;;;;;;156.83;151.13;;;10.90;93.60;;;;;;5008842;28;20453;-83
2022/08/08 03:37:38;;;;;;;219.07;211.83;;;10.90;94.30;;;;;;5007202;28;20454;-83
2022/08/08 03:40:08;;;;;;;247.17;238.93;;;10.80;94.60;;;;;;4989886;28;20455;-83
2022/08/08 03:42:37;;;;;;;279.97;270.17;;;10.80;95.90;;;;;;4997183;28;20541;-83
2022/08/08 03:45:13;;;;;;;322.03;310.27;;;10.70;96.40;;;;;;5007462;28;20474;-83
2022/08/08 03:47:40;;;;;;;287.47;277.37;;;10.90;98.00;;;;;;5005219;28;20468;-83
2022/08/08 03:50:15;;;;;;;320.67;308.93;;;11.00;98.00;;;;;;5007448;28;20458;-83
2022/08/08 03:52:42;;;;;;;233.97;225.73;;;11.00;99.40;;;;;;4997930;28;20482;-83
2022/08/08 03:55:12;;;;;;;248.47;239.80;;;11.00;98.20;;;;;;4992263;28;20478;-82
2022/08/08 03:57:44;;;;;;;214.40;206.90;;;11.20;98.80;;;;;;5004060;28;20545;-83
2022/08/08 04:00:13;;;;;;;165.70;159.63;;;11.30;98.10;;;;;;4997377;28;20467;-84
2022/08/08 04:02:46;;;;;;;156.97;150.80;;;11.20;97.20;;;;;;5001091;28;20479;-82
2022/08/08 04:08:26;;;;;;;218.73;210.57;;;11.10;97.50;;;;;;4998363;28;20477;-83
2022/08/08 04:11:36;;;;;;;154.83;149.33;;;11.10;98.10;;;;;;4991726;28;20821;-83
2022/08/08 04:14:03;;;;;;;158.00;151.70;;;11.20;98.90;;;;;;4995176;28;20481;-81
2022/08/08 04:16:31;;;;;;;188.60;181.37;;;11.20;98.00;;;;;;4985080;28;20459;-82
2022/08/08 04:18:58;;;;;;;98.03;93.87;;;11.30;98.20;;;;;;4990821;28;21005;-82
2022/08/08 04:21:26;;;;;;;125.87;120.93;;;11.50;98.70;;;;;;4995674;28;20823;-83
2022/08/08 04:23:53;;;;;;;172.83;166.57;;;11.60;98.30;;;;;;4987854;28;20471;-82
2022/08/08 04:26:21;;;;;;;163.43;157.17;;;11.50;98.50;;;;;;4983442;28;20502;-82
2022/08/08 04:28:48;;;;;;;202.90;195.70;;;11.50;98.20;;;;;;4988411;28;20450;-83
2022/08/08 04:31:14;;;;;;;202.20;194.97;;;11.60;98.30;;;;;;4986254;28;20462;-83
2022/08/08 04:33:41;;;;;;;256.00;246.60;;;11.50;98.20;;;;;;4993791;28;20479;-81
2022/08/08 04:36:08;;;;;;;257.13;247.30;;;11.60;98.80;;;;;;5008791;28;20796;-82
2022/08/08 04:38:35;;;;;;;278.07;268.20;;;11.50;99.00;;;;;;5008251;28;20454;-82
2022/08/08 04:41:01;;;;;;;274.20;264.13;;;11.50;99.10;;;;;;4999060;28;20493;-82
2022/08/08 04:43:29;;;;;;;262.13;252.83;;;11.50;99.80;;;;;;4999499;28;20482;-82
2022/08/08 04:45:56;;;;;;;292.60;281.63;;;11.50;99.70;;;;;;4996703;28;20474;-83
2022/08/08 04:48:23;;;;;;;305.23;293.87;;;11.60;99.90;;;;;;4981480;28;20952;-81
2022/08/08 04:50:50;;;;;;;350.13;336.23;;;11.70;99.90;;;;;;4980038;28;20466;-82
2022/08/08 04:53:16;;;;;;;334.30;321.27;;;11.70;99.90;;;;;;4978758;28;20550;-81
2022/08/08 04:55:43;;;;;;;346.13;332.73;;;11.80;99.90;;;;;;4981488;28;20461;-82
2022/08/08 04:58:13;;;;;;;329.43;316.30;;;12.00;99.90;;;;;;4993396;28;20447;-82
2022/08/08 05:00:41;;;;;;;267.70;257.20;;;12.10;99.90;;;;;;5002113;28;20434;-81
2022/08/08 05:03:08;;;;;;;286.10;274.33;;;12.30;99.90;;;;;;5009051;28;20481;-81
2022/08/08 05:05:34;;;;;;;269.03;258.67;;;12.10;99.90;;;;;;5011404;28;20615;-82
2022/08/08 05:08:01;;;;;;;249.10;239.67;;;12.30;99.90;;;;;;5011464;28;20450;-83
2022/08/08 05:10:28;;;;;;;269.93;259.50;;;12.30;99.90;;;;;;4995610;28;20451;-82
2022/08/08 05:12:55;;;;;;;300.20;288.70;;;12.40;99.90;;;;;;5003045;28;20474;-83
2022/08/08 05:15:22;;;;;;;281.80;271.23;;;12.40;99.90;;;;;;5003645;28;20443;-82
2022/08/08 05:17:50;;;;;;;303.73;291.77;;;12.50;99.90;;;;;;4999893;28;20522;-83
2022/08/08 05:20:17;;;;;;;267.33;256.90;;;12.50;99.90;;;;;;5011241;28;20454;-81
2022/08/08 05:22:44;;;;;;;283.30;271.90;;;12.70;99.90;;;;;;5003737;28;20907;-84
2022/08/08 05:28:16;;;;;;;330.43;317.37;;;12.80;99.10;;;;;;5003408;28;20446;-80
2022/08/08 05:30:43;;;;;;;325.23;311.27;;;12.90;98.80;;;;;;5004330;28;20457;-80
2022/08/08 05:33:11;;;;;;;181.83;174.13;;;13.00;98.80;;;;;;4992013;28;20469;-83
2022/08/08 05:35:41;;;;;;;66.60;63.20;;;13.30;98.40;;;;;;4991725;28;20532;-82
2022/08/08 05:38:13;;;;;;;26.43;24.33;;;13.70;95.90;;;;;;5001974;28;20447;-78
2022/08/08 05:40:43;;;;;;;15.30;13.70;;;14.10;93.80;;;;;;4989287;28;20446;-79
2022/08/08 05:43:13;;;;;;;16.67;11.00;;;14.40;92.30;;;;;;4986816;28;20473;-79
2022/08/08 05:45:41;;;;;;;13.37;9.27;;;14.80;91.30;;;;;;4997319;28;20477;-83
2022/08/08 05:48:09;;;;;;;12.17;8.70;;;15.10;88.50;;;;;;5008725;28;20464;-81
2022/08/08 05:50:37;;;;;;;11.23;8.40;;;15.40;86.10;;;;;;5008156;28;20471;-81
2022/08/08 05:53:04;;;;;;;14.73;9.00;;;15.50;83.50;;;;;;5006639;28;20464;-81
2022/08/08 05:55:34;;;;;;;12.07;7.87;;;15.60;80.70;;;;;;5002504;28;20852;-81
2022/08/08 05:58:03;;;;;;;12.50;7.00;;;15.70;79.30;;;;;;4997036;28;20521;-81
2022/08/08 06:00:32;;;;;;;14.17;9.60;;;15.70;77.90;;;;;;5006997;28;20453;-80
2022/08/08 06:03:13;;;;;;;13.33;8.53;;;16.00;77.30;;;;;;4996366;28;20501;-82
2022/08/08 06:05:49;;;;;;;14.77;9.73;;;15.90;76.70;;;;;;5001020;28;20469;-81
2022/08/08 06:08:22;;;;;;;14.10;8.03;;;16.00;77.10;;;;;;4995468;28;20525;-81
2022/08/08 06:10:50;;;;;;;16.30;10.00;;;16.10;74.60;;;;;;5002453;28;20457;-81
2022/08/08 06:13:18;;;;;;;13.10;9.00;;;16.20;73.00;;;;;;4997231;28;20496;-81
2022/08/08 06:15:48;;;;;;;13.07;7.47;;;16.30;72.90;;;;;;4992428;28;20448;-81
2022/08/08 06:18:16;;;;;;;12.00;8.90;;;16.80;71.70;;;;;;5005349;28;20548;-81
2022/08/08 06:20:45;;;;;;;13.17;9.10;;;16.80;70.50;;;;;;5000411;28;20831;-81
2022/08/08 06:30:18;;;;;;;13.57;8.07;;;17.30;64.80;;;;;;4880141;29;21011;-82
2022/08/08 06:32:50;;;;;;;14.90;8.57;;;17.50;63.60;;;;;;4883663;29;20467;-81
2022/08/08 06:35:18;;;;;;;12.53;8.93;;;17.60;62.50;;;;;;4905533;28;20453;-81
2022/08/08 06:37:51;;;;;;;12.13;7.23;;;17.70;62.00;;;;;;5002172;28;20441;-81
2022/08/08 06:40:18;;;;;;;10.73;7.40;;;17.60;62.10;;;;;;5000410;28;20450;-81
2022/08/08 06:45:37;;;;;;;11.67;7.73;;;17.90;58.70;;;;;;4978501;28;20504;-81
2022/08/08 06:48:05;;;;;;;17.07;8.33;;;17.90;59.90;;;;;;4988966;28;20457;-80
2022/08/08 06:50:33;;;;;;;10.60;6.43;;;17.80;58.40;;;;;;4984599;28;20462;-81
2022/08/08 06:53:02;;;;;;;13.23;7.10;;;18.00;57.80;;;;;;4994339;28;20504;-80
2022/08/08 06:55:30;;;;;;;12.45;8.23;;;18.10;58.10;;;;;;4991792;28;20459;-81
2022/08/08 06:57:57;;;;;;;14.47;7.77;;;18.20;57.10;;;;;;4993076;28;20631;-80
2022/08/08 07:00:24;;;;;;;13.83;8.87;;;18.20;57.20;;;;;;4999039;28;20865;-80
2022/08/08 07:03:01;;;;;;;14.13;7.30;;;18.30;56.90;;;;;;4979462;28;20517;-79
2022/08/08 07:05:33;;;;;;;10.80;6.63;;;18.20;57.80;;;;;;4991142;28;20469;-80
2022/08/08 07:08:11;;;;;;;11.47;7.20;;;18.40;57.00;;;;;;4998950;28;20463;-80
2022/08/08 07:10:45;;;;;;;11.57;7.23;;;18.30;55.10;;;;;;4986770;28;20508;-81
2022/08/08 07:13:36;;;;;;;11.30;7.17;;;18.40;55.90;;;;;;4979535;28;20543;-80
2022/08/08 07:16:09;;;;;;;11.53;6.60;;;18.70;52.90;;;;;;4994507;28;20548;-80
2022/08/08 07:18:44;;;;;;;15.60;6.70;;;18.60;52.00;;;;;;4997563;28;20451;-79
2022/08/08 07:21:14;;;;;;;12.17;6.60;;;18.80;52.90;;;;;;4998682;28;20858;-80
2022/08/08 07:23:50;;;;;;;10.37;6.23;;;18.70;52.00;;;;;;4990767;28;20476;-80
2022/08/08 07:26:21;;;;;;;11.23;7.00;;;18.80;51.10;;;;;;4977780;28;20557;-79
2022/08/08 07:28:49;;;;;;;10.93;5.93;;;19.00;52.30;;;;;;4981462;28;20944;-80
2022/08/08 07:31:18;;;;;;;12.70;6.80;;;19.00;48.00;;;;;;4984822;28;20460;-80
2022/08/08 07:33:45;;;;;;;11.67;6.70;;;19.00;48.60;;;;;;4977016;28;20531;-79
2022/08/08 07:36:13;;;;;;;13.00;7.40;;;19.10;48.10;;;;;;4988066;28;20458;-80
2022/08/08 07:38:46;;;;;;;13.57;6.70;;;19.30;47.90;;;;;;4991214;28;20477;-79
2022/08/08 07:41:14;;;;;;;16.63;6.97;;;19.40;43.90;;;;;;4986003;28;20196;-79
2022/08/08 07:43:42;;;;;;;14.13;5.87;;;19.50;44.80;;;;;;4976274;28;20482;-79
2022/08/08 07:46:11;;;;;;;12.30;7.10;;;19.70;44.50;;;;;;4976129;28;20488;-79
2022/08/08 07:48:39;;;;;;;11.23;6.00;;;19.70;44.10;;;;;;4976205;28;20451;-80
2022/08/08 07:51:14;;;;;;;13.27;6.50;;;19.90;41.40;;;;;;4976294;28;21014;-80
2022/08/08 07:54:06;;;;;;;12.37;6.30;;;20.10;42.10;;;;;;4976325;28;20476;-80
2022/08/08 07:56:47;;;;;;;12.80;6.03;;;20.30;41.70;;;;;;4976168;28;20509;-79
2022/08/08 07:59:20;;;;;;;9.23;5.33;;;20.60;38.30;;;;;;4976804;28;20459;-81
2022/08/08 08:01:55;;;;;;;10.20;5.70;;;20.70;35.90;;;;;;4976682;28;20463;-79
2022/08/08 08:04:29;;;;;;;12.40;4.60;;;20.70;34.40;;;;;;4976642;28;20493;-79
2022/08/08 08:06:58;;;;;;;9.10;5.10;;;20.90;34.70;;;;;;4978919;28;20477;-84
2022/08/08 08:09:31;;;;;;;10.87;4.67;;;21.20;34.80;;;;;;4988637;28;20975;-83
2022/08/08 08:11:59;;;;;;;8.37;4.40;;;21.00;31.90;;;;;;4987321;28;20463;-83
2022/08/08 08:14:30;;;;;;;9.23;5.00;;;21.60;30.70;;;;;;4987900;28;20484;-84
2022/08/08 08:16:58;;;;;;;9.87;4.77;;;22.20;30.10;;;;;;4988303;28;20478;-83
2022/08/08 08:19:30;;;;;;;11.30;4.77;;;22.30;25.50;;;;;;4986844;28;20528;-84
2022/08/08 08:21:57;;;;;;;7.43;4.27;;;22.60;25.90;;;;;;4988041;28;20464;-84
2022/08/08 08:24:25;;;;;;;6.93;4.00;;;22.90;23.00;;;;;;4987998;28;20473;-84
2022/08/08 08:26:52;;;;;;;7.30;3.87;;;23.00;23.00;;;;;;4990332;28;20487;-84
2022/08/08 08:29:19;;;;;;;8.00;4.13;;;23.00;21.90;;;;;;4987448;28;20446;-84
2022/08/08 08:31:46;;;;;;;8.47;4.50;;;23.40;20.20;;;;;;4990551;28;20461;-84
2022/08/08 08:34:13;;;;;;;7.20;3.47;;;23.30;20.00;;;;;;4990942;28;20470;-84
2022/08/08 08:36:40;;;;;;;11.10;4.03;;;23.40;21.50;;;;;;4990516;28;20533;-84
2022/08/08 08:39:07;;;;;;;11.33;5.00;;;23.50;20.90;;;;;;4989628;28;20461;-84
2022/08/08 08:41:36;;;;;;;6.90;4.10;;;23.50;17.00;;;;;;4989261;28;20457;-84
2022/08/08 08:44:04;;;;;;;8.57;4.50;;;23.60;17.70;;;;;;4988707;28;20483;-84
2022/08/08 08:46:33;;;;;;;8.30;4.10;;;24.10;15.70;;;;;;4988609;28;20479;-85
2022/08/08 08:49:01;;;;;;;13.13;4.70;;;24.30;16.30;;;;;;4988896;28;20436;-84
2022/08/08 08:51:29;;;;;;;8.23;3.87;;;24.50;15.40;;;;;;4989916;28;20461;-85
2022/08/08 08:53:56;;;;;;;7.70;3.60;;;25.00;12.50;;;;;;4988804;28;20475;-82
2022/08/08 08:56:24;;;;;;;11.83;4.50;;;24.70;12.20;;;;;;4986483;28;20458;-84
2022/08/08 08:58:53;;;;;;;7.23;3.50;;;24.80;9.90;;;;;;4990095;28;20479;-85
2022/08/08 09:04:36;;;;;;;12.00;4.70;;;25.80;8.60;;;;;;4988635;28;20478;-84
2022/08/08 09:07:14;;;;;;;8.53;4.27;;;25.60;6.20;;;;;;4989030;28;20522;-85
2022/08/08 09:09:44;;;;;;;8.60;3.90;;;25.80;5.70;;;;;;4989350;28;20459;-85
2022/08/08 09:12:11;;;;;;;8.90;3.50;;;25.80;1.00;;;;;;4987805;28;20461;-84
2022/08/08 09:14:41;;;;;;;8.10;4.07;;;26.30;3.50;;;;;;4989634;28;20489;-85
2022/08/08 09:17:08;;;;;;;8.93;3.90;;;26.70;1.00;;;;;;4989095;28;20418;-86
2022/08/08 09:19:35;;;;;;;8.67;2.90;;;26.70;1.00;;;;;;4988396;28;20461;-84
2022/08/08 09:22:06;;;;;;;7.43;3.50;;;26.00;1.00;;;;;;4988930;28;20455;-85
2022/08/08 09:24:34;;;;;;;9.03;3.40;;;26.50;1.00;;;;;;4987665;28;20449;-85
2022/08/08 09:27:20;;;;;;;8.10;3.83;;;25.90;1.00;;;;;;4987881;28;20521;-84
2022/08/08 09:30:01;;;;;;;8.90;3.20;;;25.80;1.00;;;;;;4987516;28;20443;-84
2022/08/08 09:32:36;;;;;;;8.60;3.90;;;26.10;1.00;;;;;;4987686;28;20455;-85
2022/08/08 09:35:06;;;;;;;8.13;4.00;;;26.30;1.00;;;;;;4987444;28;20457;-85
2022/08/08 09:37:48;;;;;;;8.00;3.47;;;26.20;1.00;;;;;;4988887;28;20432;-85
2022/08/08 09:40:17;;;;;;;6.50;2.80;;;26.90;1.00;;;;;;4988008;28;20451;-85
2022/08/08 09:42:45;;;;;;;8.53;2.70;;;26.80;1.00;;;;;;4987458;28;20464;-85
2022/08/08 09:45:19;;;;;;;7.30;3.27;;;27.20;1.00;;;;;;4987396;28;20903;-85
2022/08/08 09:47:47;;;;;;;7.30;3.50;;;27.40;1.00;;;;;;4987545;28;20491;-85
2022/08/08 09:50:15;;;;;;;11.33;4.10;;;27.40;1.00;;;;;;4988212;28;20819;-86
2022/08/08 09:52:49;;;;;;;8.30;4.50;;;27.10;1.00;;;;;;4986622;28;20567;-85
2022/08/08 09:55:17;;;;;;;7.47;3.83;;;27.10;1.00;;;;;;4989445;28;20450;-85
2022/08/08 10:00:58;;;;;;;7.43;3.60;;;26.50;1.00;;;;;;4988632;28;20446;-85
2022/08/08 10:03:28;;;;;;;7.47;3.37;;;27.10;1.00;;;;;;4986137;28;20527;-84
2022/08/08 10:05:55;;;;;;;10.13;4.37;;;27.30;1.00;;;;;;4981140;28;20426;-85
2022/08/08 10:08:21;;;;;;;10.40;4.50;;;27.80;1.00;;;;;;4985899;28;20451;-85
2022/08/08 10:10:48;;;;;;;8.93;3.47;;;28.20;1.00;;;;;;4986771;28;20446;-85
2022/08/08 10:13:21;;;;;;;9.00;3.70;;;27.80;1.00;;;;;;4988055;28;20449;-85
2022/08/08 10:15:49;;;;;;;12.63;4.90;;;26.90;1.00;;;;;;4986579;28;20507;-85
2022/08/08 10:18:25;;;;;;;8.90;2.93;;;26.90;1.00;;;;;;4983383;28;20623;-85
2022/08/08 10:20:54;;;;;;;7.33;3.57;;;27.20;1.00;;;;;;4985311;28;20451;-85
2022/08/08 10:23:38;;;;;;;8.97;4.43;;;27.60;1.00;;;;;;4987410;28;20485;-86
2022/08/08 10:26:06;;;;;;;9.60;3.83;;;27.60;1.00;;;;;;4985914;28;20457;-85
2022/08/08 10:28:34;;;;;;;7.23;3.80;;;27.40;1.00;;;;;;4984991;28;20454;-84
2022/08/08 10:32:30;;;;;;;8.33;3.63;;;27.60;1.00;;;;;;4985143;28;20822;-85
2022/08/08 10:33:53;;;;;;;8.27;3.80;;;28.00;1.00;;;;;;4987122;28;20501;-85
2022/08/08 10:36:24;;;;;;;12.27;4.07;;;27.90;1.00;;;;;;4988932;28;20520;-85
2022/08/08 10:38:52;;;;;;;9.10;4.17;;;28.00;1.00;;;;;;4984856;28;20453;-85
2022/08/08 10:41:24;;;;;;;9.03;4.43;;;28.60;1.00;;;;;;4986452;28;20469;-85
2022/08/08 10:43:52;;;;;;;8.63;3.90;;;28.90;1.00;;;;;;4985506;28;20483;-85
2022/08/08 10:46:26;;;;;;;11.90;3.40;;;28.60;1.00;;;;;;4985655;28;20454;-84
2022/08/08 10:48:55;;;;;;;13.23;3.67;;;28.30;1.00;;;;;;4984050;28;20455;-84
2022/08/08 10:51:22;;;;;;;8.50;3.83;;;28.10;1.00;;;;;;4984950;28;20459;-84
2022/08/08 10:53:51;;;;;;;7.87;4.13;;;28.00;1.00;;;;;;4985012;28;20457;-86
2022/08/08 10:56:18;;;;;;;8.67;3.87;;;28.10;1.00;;;;;;4986940;28;20454;-85
2022/08/08 10:58:45;;;;;;;7.97;3.67;;;28.90;1.00;;;;;;4988386;28;20451;-85
2022/08/08 11:01:13;;;;;;;7.37;3.70;;;28.90;1.00;;;;;;4987726;28;20443;-85
2022/08/08 11:03:42;;;;;;;5.13;2.53;;;28.60;1.00;;;;;;4988645;28;20628;-85
2022/08/08 11:06:10;;;;;;;6.90;3.27;;;27.60;1.00;;;;;;4990440;28;20486;-85
2022/08/08 11:08:39;;;;;;;7.10;3.37;;;27.90;1.00;;;;;;4990177;28;20642;-85
2022/08/08 11:11:07;;;;;;;7.23;3.40;;;28.30;1.00;;;;;;4993378;28;20465;-86
2022/08/08 11:13:40;;;;;;;7.87;2.80;;;27.40;1.00;;;;;;4991746;28;20474;-86
2022/08/08 11:16:09;;;;;;;10.10;4.40;;;27.50;1.00;;;;;;4992597;28;20458;-85
2022/08/08 11:18:37;;;;;;;8.40;3.93;;;28.00;1.00;;;;;;4991407;28;20482;-86
2022/08/08 11:21:06;;;;;;;12.37;3.80;;;28.50;1.00;;;;;;4990167;28;20454;-84
2022/08/08 11:23:35;;;;;;;7.97;3.63;;;28.60;1.00;;;;;;4990211;28;20478;-85
2022/08/08 11:26:05;;;;;;;9.57;3.90;;;28.00;1.00;;;;;;4990251;28;20454;-85
2022/08/08 11:28:37;;;;;;;9.70;3.60;;;28.70;1.00;;;;;;4989414;28;20478;-85
2022/08/08 11:31:05;;;;;;;6.40;3.07;;;28.30;1.00;;;;;;4992261;28;20450;-85
2022/08/08 11:33:33;;;;;;;10.33;3.73;;;27.90;1.00;;;;;;4991749;28;20505;-85
2022/08/08 11:36:00;;;;;;;6.30;2.60;;;28.20;1.00;;;;;;4991572;28;20459;-85
2022/08/08 11:38:27;;;;;;;11.73;3.37;;;28.80;1.00;;;;;;4992625;28;20995;-85
2022/08/08 11:40:56;;;;;;;7.33;3.27;;;28.20;1.00;;;;;;4989228;28;20442;-85
2022/08/08 11:43:24;;;;;;;7.13;3.73;;;28.20;1.00;;;;;;4988604;28;20507;-83
2022/08/08 11:45:52;;;;;;;7.33;3.40;;;29.00;1.00;;;;;;4988956;28;20455;-85
2022/08/08 11:48:20;;;;;;;9.80;3.67;;;29.90;1.00;;;;;;4987529;28;20455;-85
2022/08/08 11:50:49;;;;;;;8.83;3.10;;;29.50;1.00;;;;;;4989550;28;20455;-84
2022/08/08 11:53:16;;;;;;;10.53;3.93;;;30.60;1.00;;;;;;4986757;28;20453;-86
2022/08/08 11:55:51;;;;;;;12.40;3.83;;;29.70;1.00;;;;;;4988959;28;20453;-85
2022/08/08 11:58:20;;;;;;;9.40;3.80;;;29.80;1.00;;;;;;4992052;28;20509;-86
2022/08/08 12:01:36;;;;;;;10.20;4.43;;;29.50;1.00;;;;;;4990405;28;20461;-85
2022/08/08 12:04:04;;;;;;;9.00;4.30;;;28.90;1.00;;;;;;4991416;28;20470;-85
2022/08/08 12:06:48;;;;;;;11.17;4.53;;;28.60;1.00;;;;;;4991239;28;20432;-85
2022/08/08 12:09:29;;;;;;;8.30;3.43;;;28.80;1.00;;;;;;4991705;28;20429;-85
2022/08/08 12:11:55;;;;;;;10.30;4.67;;;28.60;1.00;;;;;;4991030;28;20430;-86
2022/08/08 12:14:24;;;;;;;8.33;4.03;;;29.20;1.00;;;;;;4990756;28;20446;-85
2022/08/08 12:16:52;;;;;;;10.77;3.70;;;30.20;1.00;;;;;;4990347;28;20429;-85
2022/08/08 12:19:19;;;;;;;7.37;3.50;;;30.80;1.00;;;;;;4988949;28;20449;-85
2022/08/08 12:21:46;;;;;;;12.20;3.50;;;30.60;1.00;;;;;;4988882;28;20460;-84
2022/08/08 12:24:15;;;;;;;9.80;4.40;;;29.70;1.00;;;;;;4990510;28;20471;-86
2022/08/08 12:26:45;;;;;;;10.90;3.97;;;29.70;1.00;;;;;;4991492;28;20479;-86
2022/08/08 12:29:38;;;;;;;9.70;3.40;;;29.70;1.00;;;;;;4990755;28;20433;-87
2022/08/08 12:32:09;;;;;;;10.87;3.57;;;29.20;1.00;;;;;;4990658;28;20642;-85
2022/08/08 12:34:43;;;;;;;8.60;3.40;;;28.90;1.00;;;;;;4990246;28;20482;-85
2022/08/08 12:37:18;;;;;;;9.83;3.27;;;29.60;1.00;;;;;;4990149;28;20485;-85
2022/08/08 12:39:44;;;;;;;6.93;2.90;;;30.10;1.00;;;;;;4991002;28;20506;-85
2022/08/08 12:42:11;;;;;;;6.67;3.20;;;29.70;1.00;;;;;;4990288;28;20518;-85
2022/08/08 12:45:20;;;;;;;7.97;3.60;;;29.00;1.00;;;;;;4991078;28;20460;-85
2022/08/08 12:48:26;;;;;;;8.93;4.37;;;28.90;1.00;;;;;;4944090;28;20490;-86
2022/08/08 12:50:55;;;;;;;7.60;3.10;;;29.10;1.00;;;;;;4987320;28;20468;-85
2022/08/08 12:53:54;;;;;;;10.80;4.13;;;29.10;1.00;;;;;;4989790;28;20478;-85
2022/08/08 12:57:02;;;;;;;10.43;3.20;;;29.30;1.00;;;;;;4989439;28;20521;-85
2022/08/08 12:59:50;;;;;;;10.63;3.87;;;29.10;1.00;;;;;;4990867;28;20454;-85
2022/08/08 13:02:27;;;;;;;7.53;3.50;;;29.60;1.00;;;;;;4989979;28;20459;-85
2022/08/08 13:04:58;;;;;;;7.30;3.53;;;29.60;1.00;;;;;;4989162;28;20461;-86
2022/08/08 13:07:39;;;;;;;6.40;3.20;;;30.10;1.00;;;;;;4990043;28;20443;-85
2022/08/08 13:10:08;;;;;;;7.03;2.90;;;30.00;1.00;;;;;;4987507;28;20450;-86
2022/08/08 13:12:37;;;;;;;5.93;3.00;;;30.10;1.00;;;;;;4991567;28;20428;-85
2022/08/08 13:15:06;;;;;;;7.87;3.60;;;29.30;1.00;;;;;;4990019;28;20460;-85
2022/08/08 13:17:34;;;;;;;8.47;3.57;;;29.50;1.00;;;;;;4989588;28;20449;-85
2022/08/08 13:20:04;;;;;;;5.70;2.80;;;29.40;1.00;;;;;;4990407;28;20488;-86
2022/08/08 13:22:36;;;;;;;6.00;3.00;;;29.30;1.00;;;;;;4988123;28;20470;-86
2022/08/08 13:25:03;;;;;;;9.93;3.17;;;30.20;1.00;;;;;;4989609;28;20450;-85
2022/08/08 13:27:31;;;;;;;6.60;3.20;;;30.30;1.00;;;;;;4991302;28;20461;-85
2022/08/08 13:30:22;;;;;;;7.33;3.03;;;29.40;1.00;;;;;;4990719;28;20486;-86
2022/08/08 13:35:52;;;;;;;12.40;3.00;;;29.80;1.00;;;;;;4990318;28;20425;-85
2022/08/08 13:38:19;;;;;;;7.73;4.10;;;29.20;1.00;;;;;;4988015;28;20455;-86
2022/08/08 13:40:49;;;;;;;10.50;4.13;;;28.70;1.00;;;;;;4981989;28;20455;-84
2022/08/08 13:43:20;;;;;;;9.30;3.80;;;29.70;1.00;;;;;;5034532;23;20491;-83
2022/08/08 13:45:51;;;;;;;10.17;2.80;;;29.90;1.00;;;;;;5058808;28;20490;-83
2022/08/08 13:48:18;;;;;;;7.77;3.30;;;29.70;1.00;;;;;;5057954;28;20519;-83
2022/08/08 13:50:48;;;;;;;13.13;3.87;;;28.90;1.00;;;;;;5059962;28;20479;-83
2022/08/08 13:56:29;;;;;;;7.27;3.17;;;29.00;1.00;;;;;;5036290;28;20548;-83